createdAt,value
2022-12-22T00:02:41.420Z,96.74
2022-12-22T00:05:36.080Z,97.28
2022-12-22T00:08:22.053Z,97.29
2022-12-22T00:11:07.728Z,97.30
2022-12-22T00:13:53.824Z,96.85
2022-12-22T00:16:39.435Z,97.01
2022-12-22T00:19:32.120Z,95.51
2022-12-22T00:22:21.593Z,95.97
2022-12-22T00:25:07.251Z,96.12
2022-12-22T00:27:52.775Z,96.89
2022-12-22T00:30:39.136Z,96.91
2022-12-22T00:33:25.361Z,96.93
2022-12-22T00:36:11.033Z,96.01
2022-12-22T00:38:56.772Z,96.47
2022-12-22T00:41:42.409Z,95.96
2022-12-22T00:44:27.816Z,96.14
2022-12-22T00:47:13.418Z,96.88
2022-12-22T00:50:02.418Z,96.57
2022-12-22T00:52:47.936Z,96.20
2022-12-22T00:55:37.668Z,96.66
2022-12-22T00:58:30.243Z,96.66
2022-12-22T01:01:16.170Z,96.21
2022-12-22T01:04:01.857Z,95.70
2022-12-22T01:06:51.040Z,96.43
2022-12-22T01:09:37.308Z,95.06
2022-12-22T01:12:37.286Z,95.41
2022-12-22T01:15:28.321Z,96.16
2022-12-22T01:18:14.115Z,95.72
2022-12-22T01:20:59.820Z,96.59
2022-12-22T01:23:45.381Z,95.78
2022-12-22T01:26:31.035Z,95.74
2022-12-22T01:29:16.874Z,96.25
2022-12-22T01:32:02.334Z,95.51
2022-12-22T01:34:47.955Z,95.48
2022-12-22T01:37:33.608Z,95.19
2022-12-22T01:40:19.142Z,95.68
2022-12-22T01:43:04.762Z,94.60
2022-12-22T01:45:54.635Z,96.01
2022-12-22T01:48:45.644Z,94.89
2022-12-22T01:51:41.692Z,96.20
2022-12-22T01:54:28.209Z,94.82
2022-12-22T01:57:14.411Z,94.43
2022-12-22T02:00:00.608Z,95.67
2022-12-22T02:02:47.259Z,95.79
2022-12-22T02:05:36.042Z,96.01
2022-12-22T02:08:24.078Z,95.96
2022-12-22T02:11:27.615Z,96.38
2022-12-22T02:14:47.360Z,96.16
2022-12-22T02:17:40.615Z,95.21
2022-12-22T02:20:28.857Z,94.88
2022-12-22T02:23:28.605Z,94.94
2022-12-22T02:26:57.331Z,94.56
2022-12-22T02:29:55.545Z,95.63
2022-12-22T02:32:44.595Z,94.76
2022-12-22T02:35:35.386Z,95.54
2022-12-22T02:38:23.387Z,94.89
2022-12-22T02:41:20.825Z,94.14
2022-12-22T02:44:06.426Z,94.91
2022-12-22T02:47:17.879Z,94.63
2022-12-22T02:50:19.400Z,95.18
2022-12-22T02:53:07.623Z,94.34
2022-12-22T02:55:53.558Z,95.15
2022-12-22T02:58:39.328Z,94.43
2022-12-22T03:01:25.739Z,94.36
2022-12-22T03:04:11.185Z,95.23
2022-12-22T03:06:56.826Z,94.45
2022-12-22T03:09:45.213Z,93.63
2022-12-22T03:12:30.495Z,94.27
2022-12-22T03:15:16.451Z,94.23
2022-12-22T03:18:02.385Z,94.84
2022-12-22T03:20:47.816Z,94.49
2022-12-22T03:23:33.702Z,94.40
2022-12-22T03:26:00.842Z,95.01
2022-12-22T03:28:29.621Z,95.11
2022-12-22T03:31:04.745Z,94.76
2022-12-22T03:33:32.562Z,93.97
2022-12-22T03:36:00.969Z,94.86
2022-12-22T03:38:28.565Z,93.74
2022-12-22T03:40:56.029Z,93.38
2022-12-22T03:43:42.250Z,93.18
2022-12-22T03:46:32.956Z,93.03
2022-12-22T03:49:11.512Z,94.01
2022-12-22T03:51:47.496Z,94.00
2022-12-22T03:54:17.816Z,94.16
2022-12-22T03:56:45.982Z,94.71
2022-12-22T03:59:14.081Z,94.18
2022-12-22T04:01:43.635Z,94.40
2022-12-22T04:04:13.029Z,93.45
2022-12-22T04:06:41.095Z,93.81
2022-12-22T04:09:08.502Z,93.74
2022-12-22T04:11:55.089Z,93.21
2022-12-22T04:14:26.642Z,93.67
2022-12-22T04:16:56.832Z,93.99
2022-12-22T04:19:25.622Z,93.20
2022-12-22T04:21:52.672Z,93.90
2022-12-22T04:24:19.626Z,93.06
2022-12-22T04:26:46.889Z,92.68
2022-12-22T04:29:14.044Z,93.33
2022-12-22T04:31:41.162Z,92.83
2022-12-22T04:34:08.588Z,93.02
2022-12-22T04:36:35.648Z,93.23
2022-12-22T04:39:02.631Z,93.33
2022-12-22T04:41:29.699Z,93.57
2022-12-22T04:43:56.866Z,93.64
2022-12-22T04:46:23.955Z,93.52
2022-12-22T04:48:56.172Z,92.60
2022-12-22T04:51:26.888Z,93.09
2022-12-22T04:53:53.913Z,92.83
2022-12-22T04:56:21.117Z,93.29
2022-12-22T04:58:48.276Z,93.61
2022-12-22T05:01:18.559Z,93.31
2022-12-22T05:03:46.245Z,93.22
2022-12-22T05:06:13.862Z,92.97
2022-12-22T05:08:41.209Z,92.44
2022-12-22T05:11:08.384Z,92.71
2022-12-22T05:13:35.594Z,92.48
2022-12-22T05:16:06.564Z,92.06
2022-12-22T05:18:34.979Z,91.92
2022-12-22T05:21:09.638Z,91.52
2022-12-22T05:23:36.853Z,92.47
2022-12-22T05:26:04.424Z,92.47
2022-12-22T05:28:32.513Z,92.85
2022-12-22T05:31:11.399Z,92.41
2022-12-22T05:33:38.471Z,92.62
2022-12-22T05:36:06.080Z,92.51
2022-12-22T05:38:33.243Z,93.01
2022-12-22T05:41:04.366Z,93.68
2022-12-22T05:43:33.124Z,93.18
2022-12-22T05:46:06.506Z,92.88
2022-12-22T05:48:38.422Z,93.76
2022-12-22T05:51:08.790Z,93.44
2022-12-22T05:53:38.123Z,93.90
2022-12-22T05:56:05.827Z,93.59
2022-12-22T05:58:33.334Z,93.00
2022-12-22T06:01:01.151Z,93.15
2022-12-22T06:03:28.264Z,93.62
2022-12-22T06:05:55.857Z,93.48
2022-12-22T06:08:24.060Z,93.64
2022-12-22T06:10:51.730Z,93.66
2022-12-22T06:13:18.738Z,93.50
2022-12-22T06:15:46.042Z,92.87
2022-12-22T06:18:13.503Z,93.50
2022-12-22T06:20:40.743Z,93.43
2022-12-22T06:23:07.866Z,93.46
2022-12-22T06:25:34.872Z,93.57
2022-12-22T06:28:01.980Z,92.80
2022-12-22T06:30:33.169Z,93.25
2022-12-22T06:33:01.640Z,93.11
2022-12-22T06:35:29.172Z,93.04
2022-12-22T06:37:56.473Z,92.72
2022-12-22T06:40:23.626Z,92.97
2022-12-22T06:43:09.785Z,93.41
2022-12-22T06:45:39.566Z,94.05
2022-12-22T06:48:09.741Z,93.98
2022-12-22T06:50:37.203Z,94.13
2022-12-22T06:53:05.599Z,94.30
2022-12-22T06:55:32.735Z,94.36
2022-12-22T06:58:00.113Z,94.49
2022-12-22T07:00:27.095Z,95.11
2022-12-22T07:02:54.426Z,96.13
2022-12-22T07:05:22.016Z,96.10
2022-12-22T07:12:26.072Z,97.50
2022-12-22T07:14:53.070Z,98.37
2022-12-22T07:17:20.426Z,99.84
2022-12-22T07:20:28.777Z,99.95
2022-12-22T07:23:01.159Z,100.00
2022-12-22T07:25:28.244Z,100.00
2022-12-22T07:27:55.199Z,100.00
2022-12-22T08:56:45.565Z,88.90
2022-12-22T08:59:13.330Z,86.53
2022-12-22T09:01:44.758Z,85.59
2022-12-22T09:04:16.356Z,85.47
2022-12-22T09:06:43.314Z,88.89
2022-12-22T09:09:12.918Z,91.25
2022-12-22T09:11:40.612Z,91.07
2022-12-22T09:14:11.041Z,85.04
2022-12-22T09:16:38.764Z,85.40
2022-12-22T09:19:07.234Z,86.24
2022-12-22T09:21:35.299Z,86.28
2022-12-22T09:24:02.225Z,84.82
2022-12-22T09:26:29.435Z,81.68
2022-12-22T09:28:56.824Z,80.83
2022-12-22T09:31:26.021Z,83.56
2022-12-22T09:33:52.983Z,76.96
2022-12-22T09:36:23.133Z,69.84
2022-12-22T09:38:50.465Z,69.09
2022-12-22T09:41:31.999Z,69.85
2022-12-22T09:44:07.165Z,69.08
2022-12-22T09:46:37.794Z,66.34
2022-12-22T09:49:06.963Z,66.95
2022-12-22T09:51:47.876Z,65.67
2022-12-22T09:54:16.543Z,63.51
2022-12-22T09:56:43.373Z,53.45
2022-12-22T09:59:15.848Z,55.17
2022-12-22T10:02:00.778Z,47.19
2022-12-22T10:04:57.688Z,50.61
2022-12-22T10:07:42.806Z,48.61
2022-12-22T10:10:30.774Z,51.24
2022-12-22T10:13:03.587Z,50.81
2022-12-22T10:15:42.090Z,43.71
2022-12-22T10:18:10.676Z,41.46
2022-12-22T10:20:39.891Z,42.01
2022-12-22T10:23:38.856Z,44.51
2022-12-22T10:29:04.484Z,43.92
2022-12-22T10:31:37.206Z,43.10
2022-12-22T10:34:30.879Z,44.57
2022-12-22T10:37:03.367Z,41.86
2022-12-22T10:39:35.651Z,41.08
2022-12-22T10:42:09.848Z,41.03
2022-12-22T10:44:38.649Z,41.05
2022-12-22T10:47:31.679Z,39.32
2022-12-22T10:52:32.041Z,42.59
2022-12-22T10:55:19.279Z,42.29
2022-12-22T10:57:46.347Z,41.33
2022-12-22T11:00:28.840Z,40.63
2022-12-22T11:02:58.352Z,42.04
2022-12-22T11:05:25.706Z,42.43
2022-12-22T11:07:56.665Z,41.33
2022-12-22T11:10:30.684Z,40.90
2022-12-22T11:13:19.008Z,42.40
2022-12-22T11:15:51.620Z,42.68
2022-12-22T11:18:42.549Z,43.14
2022-12-22T11:21:26.815Z,44.33
2022-12-22T11:24:21.765Z,44.64
2022-12-22T11:27:18.281Z,45.17
2022-12-22T11:30:17.060Z,46.22
2022-12-22T11:32:58.546Z,45.99
2022-12-22T11:36:05.169Z,46.47
2022-12-22T11:38:54.824Z,46.55
2022-12-22T11:41:21.653Z,47.08
2022-12-22T11:44:18.223Z,48.45
2022-12-22T11:46:55.248Z,47.85
2022-12-22T11:49:52.576Z,47.79
2022-12-22T11:53:02.038Z,48.62
2022-12-22T11:55:35.449Z,47.82
2022-12-22T11:58:31.306Z,47.85
2022-12-22T12:01:39.108Z,46.70
2022-12-22T12:04:14.716Z,48.82
2022-12-22T12:07:10.393Z,47.72
2022-12-22T12:09:39.953Z,47.83
2022-12-22T12:12:31.040Z,48.39
2022-12-22T12:15:24.358Z,49.01
2022-12-22T12:17:57.102Z,48.83
2022-12-22T12:20:42.309Z,48.47
2022-12-22T12:23:18.172Z,49.31
2022-12-22T12:26:01.583Z,48.40
2022-12-22T12:28:42.468Z,47.67
2022-12-22T12:31:13.066Z,50.52
2022-12-22T12:33:55.306Z,50.33
2022-12-22T12:36:34.459Z,48.27
2022-12-22T12:39:19.418Z,51.61
2022-12-22T12:41:59.228Z,51.02
2022-12-22T12:44:31.692Z,50.13
2022-12-22T12:47:26.393Z,48.96
2022-12-22T12:50:15.121Z,52.42
2022-12-22T12:52:44.245Z,52.78
2022-12-22T12:55:32.791Z,53.05
2022-12-22T12:58:02.437Z,52.68
2022-12-22T13:00:32.185Z,53.87
2022-12-22T13:04:01.133Z,54.09
2022-12-22T13:06:49.864Z,55.38
2022-12-22T13:12:38.183Z,57.25
2022-12-22T13:15:29.900Z,57.30
2022-12-22T13:17:58.977Z,58.54
2022-12-22T13:20:31.489Z,59.33
2022-12-22T13:23:00.550Z,59.66
2022-12-22T13:25:53.157Z,61.21
2022-12-22T13:28:23.586Z,62.02
2022-12-22T13:31:12.767Z,61.48
2022-12-22T13:33:42.594Z,62.05
2022-12-22T13:36:19.033Z,63.80
2022-12-22T13:38:46.249Z,65.23
2022-12-22T13:41:26.582Z,66.85
2022-12-22T13:44:02.111Z,67.91
2022-12-22T13:46:28.972Z,67.73
2022-12-22T13:48:57.705Z,69.78
2022-12-22T13:51:28.801Z,71.24
2022-12-22T13:54:11.072Z,71.71
2022-12-22T13:56:46.173Z,72.95
2022-12-22T13:59:43.333Z,72.63
2022-12-22T14:02:10.037Z,73.34
2022-12-22T14:04:39.147Z,75.77
2022-12-22T14:07:16.187Z,75.70
2022-12-22T14:09:50.479Z,77.42
2022-12-22T14:12:20.960Z,77.45
2022-12-22T14:14:50.466Z,77.79
2022-12-22T14:17:29.479Z,78.54
2022-12-22T14:19:59.516Z,78.94
2022-12-22T14:22:45.452Z,79.93
2022-12-22T14:25:40.695Z,81.54
2022-12-22T14:28:21.068Z,81.24
2022-12-22T14:30:57.131Z,82.91
2022-12-22T14:33:23.942Z,83.33
2022-12-22T14:35:51.175Z,84.03
2022-12-22T14:38:27.099Z,83.67
2022-12-22T14:40:57.821Z,84.23
2022-12-22T14:43:28.831Z,85.16
2022-12-22T14:46:09.326Z,85.86
2022-12-22T14:48:40.546Z,86.28
2022-12-22T14:51:07.778Z,85.61
2022-12-22T14:53:46.713Z,87.09
2022-12-22T14:56:15.852Z,87.04
2022-12-22T14:58:46.542Z,87.69
2022-12-22T15:01:28.935Z,87.98
2022-12-22T15:04:05.092Z,88.18
2022-12-22T15:06:44.119Z,89.29
2022-12-22T15:09:14.496Z,89.72
2022-12-22T15:11:45.779Z,89.82
2022-12-22T15:14:18.800Z,89.82
2022-12-22T15:16:51.356Z,90.51
2022-12-22T15:19:25.125Z,90.93
2022-12-22T15:21:52.258Z,91.05
2022-12-22T15:24:25.800Z,91.81
2022-12-22T15:26:53.845Z,92.45
2022-12-22T15:29:21.608Z,94.95
2022-12-22T15:31:48.142Z,94.65
2022-12-22T15:34:25.005Z,94.92
2022-12-22T15:37:00.777Z,94.93
2022-12-22T15:39:29.700Z,94.61
2022-12-22T15:42:01.389Z,94.83
2022-12-22T15:44:35.226Z,94.89
2022-12-22T15:47:15.558Z,95.32
2022-12-22T15:52:33.368Z,96.10
2022-12-22T15:55:05.734Z,96.45
2022-12-22T15:57:38.368Z,96.86
2022-12-22T16:00:05.644Z,97.30
2022-12-22T16:02:32.567Z,96.86
2022-12-22T16:04:59.356Z,97.13
2022-12-22T16:07:26.362Z,97.42
2022-12-22T16:09:53.247Z,97.71
2022-12-22T16:12:20.519Z,97.97
2022-12-22T16:14:52.209Z,98.46
2022-12-22T16:17:21.191Z,98.34
2022-12-22T16:19:48.013Z,97.96
2022-12-22T16:22:17.484Z,98.73
2022-12-22T16:24:47.275Z,98.82
2022-12-22T16:27:15.178Z,99.19
2022-12-22T16:29:46.194Z,98.27
2022-12-22T16:32:31.659Z,98.91
2022-12-22T16:35:39.830Z,99.09
2022-12-22T16:38:09.706Z,99.15
2022-12-22T16:40:50.243Z,99.21
2022-12-22T16:46:21.239Z,99.29
2022-12-22T16:48:54.410Z,99.49
2022-12-22T16:51:33.648Z,99.34
2022-12-22T16:54:04.706Z,99.34
2022-12-22T16:56:32.627Z,100.00
2022-12-22T16:59:00.942Z,100.00
2022-12-22T17:01:46.679Z,100.00
2022-12-22T17:04:27.020Z,100.00
2022-12-22T17:06:55.654Z,100.00
2022-12-22T17:09:39.935Z,100.00
2022-12-22T17:12:07.363Z,100.00
2022-12-22T17:14:40.692Z,100.00
2022-12-22T17:17:18.940Z,100.00
2022-12-22T17:19:45.963Z,100.00
2022-12-22T17:22:43.683Z,100.00
2022-12-22T17:25:17.790Z,100.00
2022-12-22T17:27:44.638Z,100.00
2022-12-22T17:30:20.141Z,100.00
2022-12-22T17:32:53.389Z,100.00
2022-12-22T17:35:25.785Z,100.00
2022-12-22T17:37:53.471Z,100.00
2022-12-22T17:40:27.652Z,100.00
2022-12-22T17:42:54.644Z,100.00
2022-12-22T17:45:21.396Z,100.00
2022-12-22T17:47:48.446Z,100.00
2022-12-22T17:50:17.527Z,100.00
2022-12-22T17:52:45.727Z,100.00
2022-12-22T17:56:05.186Z,100.00
2022-12-22T17:58:15.635Z,100.00
2022-12-22T18:00:43.197Z,100.00
2022-12-22T18:03:14.753Z,100.00
2022-12-22T18:05:47.431Z,100.00
2022-12-22T18:08:20.286Z,100.00
2022-12-22T18:10:48.525Z,100.00
2022-12-22T18:13:22.900Z,100.00
2022-12-22T18:15:49.948Z,100.00
2022-12-22T18:18:18.758Z,100.00
2022-12-22T18:21:07.364Z,100.00
2022-12-22T18:23:34.830Z,100.00
2022-12-22T18:26:02.016Z,100.00
2022-12-22T18:28:29.476Z,100.00
2022-12-22T18:30:56.587Z,100.00
2022-12-22T18:33:23.743Z,100.00
2022-12-22T18:35:51.182Z,100.00
2022-12-22T18:38:28.482Z,100.00
2022-12-22T18:40:55.528Z,100.00
2022-12-22T18:43:22.429Z,100.00
2022-12-22T18:45:49.333Z,100.00
2022-12-22T18:48:16.472Z,100.00
2022-12-22T18:50:43.570Z,100.00
2022-12-22T18:53:31.068Z,100.00
2022-12-22T18:55:58.840Z,100.00
2022-12-22T18:58:26.663Z,100.00
2022-12-22T19:00:54.814Z,100.00
2022-12-22T19:03:24.529Z,100.00
2022-12-22T19:05:51.410Z,100.00
2022-12-22T19:08:21.074Z,100.00
2022-12-22T19:10:59.317Z,100.00
2022-12-22T19:13:30.200Z,100.00
2022-12-22T19:15:57.727Z,100.00
2022-12-22T19:18:27.352Z,100.00
2022-12-22T19:20:55.692Z,100.00
2022-12-22T19:23:24.567Z,100.00
2022-12-22T19:26:03.555Z,100.00
2022-12-22T19:28:36.448Z,100.00
2022-12-22T19:31:06.375Z,100.00
2022-12-22T19:33:42.964Z,100.00
2022-12-22T19:36:22.177Z,100.00
2022-12-22T19:38:51.153Z,100.00
2022-12-22T19:41:38.342Z,100.00
2022-12-22T19:44:06.554Z,100.00
2022-12-22T19:46:50.129Z,100.00
2022-12-22T19:49:47.296Z,100.00
2022-12-22T19:52:17.026Z,100.00
2022-12-22T19:54:44.115Z,100.00
2022-12-22T19:57:18.420Z,100.00
2022-12-22T19:59:50.478Z,100.00
2022-12-22T20:02:31.535Z,100.00
2022-12-22T20:05:16.856Z,100.00
2022-12-22T20:07:46.753Z,100.00
2022-12-22T20:10:15.530Z,100.00
2022-12-22T20:12:47.978Z,100.00
2022-12-22T20:15:33.874Z,100.00
2022-12-22T20:18:09.347Z,100.00
2022-12-22T20:21:23.197Z,100.00
2022-12-22T20:23:58.028Z,100.00
2022-12-22T20:26:46.165Z,100.00
2022-12-22T20:29:23.487Z,100.00
2022-12-22T20:32:00.770Z,100.00
2022-12-22T20:34:35.405Z,100.00
2022-12-22T20:37:05.989Z,100.00
2022-12-22T20:40:51.351Z,100.00
2022-12-22T20:43:04.185Z,100.00
2022-12-22T20:45:46.231Z,100.00
2022-12-22T20:48:28.806Z,100.00
2022-12-22T20:50:59.479Z,100.00
2022-12-22T20:53:58.208Z,100.00
2022-12-22T20:56:34.242Z,100.00
2022-12-22T20:59:15.460Z,100.00
2022-12-22T21:01:45.598Z,100.00
2022-12-22T21:04:18.716Z,100.00
2022-12-22T21:07:11.509Z,100.00
2022-12-22T21:09:39.626Z,100.00
2022-12-22T21:12:06.520Z,100.00
2022-12-22T21:14:33.354Z,100.00
2022-12-22T21:17:00.313Z,100.00
2022-12-22T21:19:27.137Z,100.00
2022-12-22T21:21:54.858Z,100.00
2022-12-22T21:24:21.658Z,100.00
2022-12-22T21:26:53.462Z,100.00
2022-12-22T21:29:26.000Z,100.00
2022-12-22T21:31:53.627Z,100.00
2022-12-22T21:34:21.089Z,100.00
2022-12-22T21:36:51.833Z,100.00
2022-12-22T21:42:01.991Z,100.00
2022-12-22T21:44:34.152Z,100.00
2022-12-22T21:47:01.461Z,100.00
2022-12-22T21:49:32.067Z,100.00
2022-12-22T21:51:59.480Z,100.00
2022-12-22T21:54:26.892Z,100.00
2022-12-22T21:56:55.430Z,100.00
2022-12-22T21:59:22.574Z,100.00
2022-12-22T22:01:52.981Z,100.00
2022-12-22T22:04:21.928Z,100.00
2022-12-22T22:14:34.312Z,100.00
2022-12-22T22:17:02.413Z,100.00
2022-12-22T22:22:11.646Z,100.00
2022-12-22T22:24:39.619Z,100.00
2022-12-22T22:27:13.480Z,100.00
2022-12-22T22:29:57.359Z,100.00
2022-12-22T22:32:25.229Z,100.00
2022-12-22T22:35:09.350Z,100.00
2022-12-22T22:38:02.621Z,100.00
2022-12-22T22:41:30.699Z,100.00
2022-12-22T22:44:06.727Z,100.00
2022-12-22T22:46:42.908Z,100.00
2022-12-22T22:49:28.369Z,100.00
2022-12-22T22:52:26.650Z,100.00
2022-12-22T22:56:24.848Z,100.00
2022-12-22T22:58:22.095Z,100.00
2022-12-22T23:00:49.797Z,100.00
2022-12-22T23:03:36.526Z,100.00
2022-12-22T23:06:29.263Z,100.00
2022-12-22T23:09:03.035Z,100.00
2022-12-22T23:11:58.736Z,100.00
2022-12-22T23:14:28.914Z,100.00
2022-12-22T23:17:00.580Z,100.00
2022-12-22T23:19:28.187Z,100.00
2022-12-22T23:21:55.205Z,100.00
2022-12-22T23:24:22.629Z,100.00
2022-12-22T23:26:49.644Z,100.00
2022-12-22T23:29:16.617Z,100.00
2022-12-22T23:31:44.367Z,100.00
2022-12-22T23:34:12.564Z,100.00
2022-12-22T23:36:39.529Z,100.00
2022-12-22T23:39:06.663Z,100.00
2022-12-22T23:41:34.375Z,100.00
2022-12-22T23:44:01.514Z,100.00
2022-12-22T23:46:28.575Z,100.00
2022-12-22T23:48:57.686Z,100.00
2022-12-22T23:51:29.562Z,100.00
2022-12-22T23:53:58.539Z,100.00
2022-12-22T23:56:25.562Z,100.00
2022-12-22T23:58:54.826Z,100.00
